OOMS/MCT METAR and TAF weather

Enter ICAO airport designator
Station Type Date Time Source
OOMS METAR 2019/02/23 22:50 UTC NOAA

OOMS 232250Z 31005KT CAVOK 21/18 Q1014 NOSIG


Station Type Date Time Source
OOMS Decoded METAR 2019/02/23 22:50 UTC NOAA

Seeb, International Airport, Oman (OOMS) 23-35N 058-17E 17M
Feb 23, 2019 - 05:50 PM EST / 2019.02.23 2250 UTC
Wind: from the NW (310 degrees) at 6 MPH (5 KT):0
Visibility: greater than 7 mile(s):0
Temperature: 69 F (21 C)
Dew Point: 64 F (18 C)
Relative Humidity: 82%
Pressure (altimeter): 29.94 in. Hg (1014 hPa)
ob: OOMS 232250Z 31005KT CAVOK 21/18 Q1014 NOSIG
cycle: 23

Station Type Date Time Source
OOMS TAF 2019/02/23 18:03 UTC NOAA

TAF OOMS 231700Z 2318/2424 25005KT 9000 SCT035 PROB30
TEMPO 2402/2406 -RA BKN030
BECMG 2406/2408 05012KT PROB30
TEMPO 2410/2415 -RA BKN030
BECMG 2418/2420 23006KT


Example: see airport list